Terminal Aerodrome Forecast
Issued by NWS Caribou, ME

Current Version | Previous Version | Text Only | Print | Product List | Glossary On
Versions: 1 2 3 4 5 6 7 8 9 10 11 12 13 14 15 16 17 18 19
000 FTUS41 KCAR 210535 TAFBGR TAF KBGR 210535Z 2106/2206 01009KT P6SM SCT020 BKN040 FM210700 01009KT P6SM SCT250 FM211400 02012G22KT P6SM FEW250 FM212200 02009KT P6SM SKC=

USA.gov is the U.S. government's official web portal to all federal, state and local government web resources and services.